sensor_id;sensor_type;location;lat;lon;timestamp;P1;durP1;ratioP1;P2;durP2;ratioP2
57101;SDS011;42982;54.558;18.508;2023-08-31T00:00:02;2.55;;;0.90;;
57101;SDS011;42982;54.558;18.508;2023-08-31T00:01:07;2.08;;;1.10;;
57101;SDS011;42982;54.558;18.508;2023-08-31T00:02:13;2.03;;;1.00;;
57101;SDS011;42982;54.558;18.508;2023-08-31T00:03:15;1.33;;;1.00;;
57101;SDS011;42982;54.558;18.508;2023-08-31T00:04:17;2.00;;;1.00;;
57101;SDS011;42982;54.558;18.508;2023-08-31T00:05:18;2.70;;;1.00;;
57101;SDS011;42982;54.558;18.508;2023-08-31T00:06:20;1.15;;;0.90;;
57101;SDS011;42982;54.558;18.508;2023-08-31T00:07:22;2.15;;;1.13;;
57101;SDS011;42982;54.558;18.508;2023-08-31T00:08:43;2.95;;;1.00;;
57101;SDS011;42982;54.558;18.508;2023-08-31T00:09:47;2.75;;;0.90;;
57101;SDS011;42982;54.558;18.508;2023-08-31T00:10:56;1.20;;;0.80;;
57101;SDS011;42982;54.558;18.508;2023-08-31T00:12:00;2.17;;;0.88;;
57101;SDS011;42982;54.558;18.508;2023-08-31T00:13:02;4.00;;;1.70;;
57101;SDS011;42982;54.558;18.508;2023-08-31T00:14:03;2.65;;;1.08;;
57101;SDS011;42982;54.558;18.508;2023-08-31T00:15:06;1.80;;;0.88;;
57101;SDS011;42982;54.558;18.508;2023-08-31T00:16:09;2.33;;;1.00;;
57101;SDS011;42982;54.558;18.508;2023-08-31T00:17:12;2.28;;;1.35;;
57101;SDS011;42982;54.558;18.508;2023-08-31T00:18:17;3.30;;;1.20;;
57101;SDS011;42982;54.558;18.508;2023-08-31T00:19:21;1.77;;;1.20;;
57101;SDS011;42982;54.558;18.508;2023-08-31T00:20:22;1.30;;;0.80;;
57101;SDS011;42982;54.558;18.508;2023-08-31T00:21:24;0.80;;;0.80;;
57101;SDS011;42982;54.558;18.508;2023-08-31T00:22:26;1.00;;;0.90;;
57101;SDS011;42982;54.558;18.508;2023-08-31T00:23:28;2.00;;;1.17;;
57101;SDS011;42982;54.558;18.508;2023-08-31T00:24:32;4.88;;;0.90;;
57101;SDS011;42982;54.558;18.508;2023-08-31T00:25:37;1.45;;;0.70;;
57101;SDS011;42982;54.558;18.508;2023-08-31T00:26:39;1.40;;;0.90;;
57101;SDS011;42982;54.558;18.508;2023-08-31T00:27:43;1.58;;;0.90;;
57101;SDS011;42982;54.558;18.508;2023-08-31T00:28:47;1.27;;;0.95;;
57101;SDS011;42982;54.558;18.508;2023-08-31T00:29:50;2.03;;;0.98;;
57101;SDS011;42982;54.558;18.508;2023-08-31T00:30:54;1.70;;;1.00;;
57101;SDS011;42982;54.558;18.508;2023-08-31T00:31:57;1.27;;;0.85;;
57101;SDS011;42982;54.558;18.508;2023-08-31T00:32:59;2.17;;;1.20;;
57101;SDS011;42982;54.558;18.508;2023-08-31T00:34:05;1.50;;;0.80;;
57101;SDS011;42982;54.558;18.508;2023-08-31T00:35:07;1.70;;;1.00;;
57101;SDS011;42982;54.558;18.508;2023-08-31T00:36:10;1.88;;;0.90;;
57101;SDS011;42982;54.558;18.508;2023-08-31T00:37:12;3.25;;;1.20;;
57101;SDS011;42982;54.558;18.508;2023-08-31T00:38:14;1.52;;;1.00;;
57101;SDS011;42982;54.558;18.508;2023-08-31T00:39:15;1.80;;;1.00;;
57101;SDS011;42982;54.558;18.508;2023-08-31T00:40:18;2.95;;;1.20;;
57101;SDS011;42982;54.558;18.508;2023-08-31T00:41:24;1.60;;;0.95;;
57101;SDS011;42982;54.558;18.508;2023-08-31T00:42:26;1.63;;;1.15;;
57101;SDS011;42982;54.558;18.508;2023-08-31T00:43:31;2.63;;;1.00;;
57101;SDS011;42982;54.558;18.508;2023-08-31T00:44:32;1.98;;;1.20;;
57101;SDS011;42982;54.558;18.508;2023-08-31T00:45:38;3.83;;;1.15;;
57101;SDS011;42982;54.558;18.508;2023-08-31T00:46:49;4.13;;;0.93;;
57101;SDS011;42982;54.558;18.508;2023-08-31T00:47:50;3.58;;;1.40;;
57101;SDS011;42982;54.558;18.508;2023-08-31T00:48:52;2.95;;;1.73;;
57101;SDS011;42982;54.558;18.508;2023-08-31T00:49:56;2.65;;;1.20;;
57101;SDS011;42982;54.558;18.508;2023-08-31T00:50:57;0.90;;;0.90;;
57101;SDS011;42982;54.558;18.508;2023-08-31T00:52:01;2.60;;;1.00;;
57101;SDS011;42982;54.558;18.508;2023-08-31T00:53:04;2.78;;;1.00;;
57101;SDS011;42982;54.558;18.508;2023-08-31T00:54:08;1.08;;;0.90;;
57101;SDS011;42982;54.558;18.508;2023-08-31T00:55:12;2.53;;;1.00;;
57101;SDS011;42982;54.558;18.508;2023-08-31T00:56:16;1.45;;;1.00;;
57101;SDS011;42982;54.558;18.508;2023-08-31T00:57:27;1.33;;;0.90;;
57101;SDS011;42982;54.558;18.508;2023-08-31T00:58:31;1.58;;;0.98;;
57101;SDS011;42982;54.558;18.508;2023-08-31T00:59:33;2.40;;;1.00;;
57101;SDS011;42982;54.558;18.508;2023-08-31T01:03:09;5.13;;;1.40;;
57101;SDS011;42982;54.558;18.508;2023-08-31T01:04:21;1.92;;;1.20;;
57101;SDS011;42982;54.558;18.508;2023-08-31T01:05:48;1.50;;;1.00;;
57101;SDS011;42982;54.558;18.508;2023-08-31T01:08:26;2.80;;;1.10;;
57101;SDS011;42982;54.558;18.508;2023-08-31T01:12:21;1.42;;;1.00;;
57101;SDS011;42982;54.558;18.508;2023-08-31T01:13:31;1.88;;;1.20;;
57101;SDS011;42982;54.558;18.508;2023-08-31T01:14:41;3.00;;;1.40;;
57101;SDS011;42982;54.558;18.508;2023-08-31T01:15:45;1.25;;;1.10;;
57101;SDS011;42982;54.558;18.508;2023-08-31T01:16:49;1.40;;;1.00;;
57101;SDS011;42982;54.558;18.508;2023-08-31T01:17:52;3.00;;;1.30;;
57101;SDS011;42982;54.558;18.508;2023-08-31T01:18:57;1.75;;;1.13;;
57101;SDS011;42982;54.558;18.508;2023-08-31T01:20:00;1.60;;;1.20;;
57101;SDS011;42982;54.558;18.508;2023-08-31T01:24:04;2.40;;;1.48;;
57101;SDS011;42982;54.558;18.508;2023-08-31T01:25:13;3.22;;;1.77;;
57101;SDS011;42982;54.558;18.508;2023-08-31T01:26:17;2.72;;;1.60;;
57101;SDS011;42982;54.558;18.508;2023-08-31T01:27:24;1.80;;;1.30;;
57101;SDS011;42982;54.558;18.508;2023-08-31T01:28:27;3.88;;;2.03;;
57101;SDS011;42982;54.558;18.508;2023-08-31T01:29:29;4.07;;;1.58;;
57101;SDS011;42982;54.558;18.508;2023-08-31T01:30:33;2.80;;;1.45;;
57101;SDS011;42982;54.558;18.508;2023-08-31T01:31:41;1.83;;;1.23;;
57101;SDS011;42982;54.558;18.508;2023-08-31T01:32:45;3.05;;;1.20;;
57101;SDS011;42982;54.558;18.508;2023-08-31T01:33:46;3.00;;;1.50;;
57101;SDS011;42982;54.558;18.508;2023-08-31T01:34:49;1.52;;;1.42;;
57101;SDS011;42982;54.558;18.508;2023-08-31T01:35:54;3.00;;;1.20;;
57101;SDS011;42982;54.558;18.508;2023-08-31T01:37:00;1.88;;;1.05;;
57101;SDS011;42982;54.558;18.508;2023-08-31T01:38:05;2.88;;;1.25;;
57101;SDS011;42982;54.558;18.508;2023-08-31T01:39:13;1.50;;;1.20;;
57101;SDS011;42982;54.558;18.508;2023-08-31T01:40:33;4.47;;;1.23;;
57101;SDS011;42982;54.558;18.508;2023-08-31T01:42:02;1.75;;;1.30;;
57101;SDS011;42982;54.558;18.508;2023-08-31T01:43:06;3.10;;;1.38;;
57101;SDS011;42982;54.558;18.508;2023-08-31T01:44:11;2.25;;;1.38;;
57101;SDS011;42982;54.558;18.508;2023-08-31T01:45:18;1.45;;;1.35;;
57101;SDS011;42982;54.558;18.508;2023-08-31T01:46:26;3.60;;;1.50;;
57101;SDS011;42982;54.558;18.508;2023-08-31T01:47:31;2.80;;;1.50;;
57101;SDS011;42982;54.558;18.508;2023-08-31T01:48:39;2.22;;;1.42;;
57101;SDS011;42982;54.558;18.508;2023-08-31T01:49:40;3.38;;;1.35;;
57101;SDS011;42982;54.558;18.508;2023-08-31T01:50:44;1.65;;;1.20;;
57101;SDS011;42982;54.558;18.508;2023-08-31T01:51:47;3.83;;;1.50;;
57101;SDS011;42982;54.558;18.508;2023-08-31T01:52:49;1.73;;;1.30;;
57101;SDS011;42982;54.558;18.508;2023-08-31T01:53:54;2.40;;;1.40;;
57101;SDS011;42982;54.558;18.508;2023-08-31T01:54:56;3.35;;;1.90;;
57101;SDS011;42982;54.558;18.508;2023-08-31T01:56:00;2.13;;;1.40;;
57101;SDS011;42982;54.558;18.508;2023-08-31T01:57:05;3.28;;;1.70;;
57101;SDS011;42982;54.558;18.508;2023-08-31T01:58:17;2.47;;;1.30;;
57101;SDS011;42982;54.558;18.508;2023-08-31T01:59:19;1.55;;;1.10;;
57101;SDS011;42982;54.558;18.508;2023-08-31T02:00:25;2.53;;;1.10;;
57101;SDS011;42982;54.558;18.508;2023-08-31T02:01:27;1.20;;;1.10;;
57101;SDS011;42982;54.558;18.508;2023-08-31T02:02:29;1.10;;;1.00;;
57101;SDS011;42982;54.558;18.508;2023-08-31T02:03:31;1.10;;;1.00;;
57101;SDS011;42982;54.558;18.508;2023-08-31T02:04:36;3.33;;;1.40;;
57101;SDS011;42982;54.558;18.508;2023-08-31T02:05:42;1.30;;;1.20;;
57101;SDS011;42982;54.558;18.508;2023-08-31T02:06:44;3.30;;;1.20;;
57101;SDS011;42982;54.558;18.508;2023-08-31T02:07:45;1.15;;;1.00;;
57101;SDS011;42982;54.558;18.508;2023-08-31T02:08:47;1.95;;;1.30;;
57101;SDS011;42982;54.558;18.508;2023-08-31T02:09:52;1.25;;;1.00;;
57101;SDS011;42982;54.558;18.508;2023-08-31T02:10:54;1.65;;;1.10;;
57101;SDS011;42982;54.558;18.508;2023-08-31T02:11:57;1.45;;;0.90;;
57101;SDS011;42982;54.558;18.508;2023-08-31T02:13:00;3.78;;;1.40;;
57101;SDS011;42982;54.558;18.508;2023-08-31T02:14:04;1.30;;;1.05;;
57101;SDS011;42982;54.558;18.508;2023-08-31T02:15:06;1.55;;;0.90;;
57101;SDS011;42982;54.558;18.508;2023-08-31T02:16:11;1.42;;;1.05;;
57101;SDS011;42982;54.558;18.508;2023-08-31T02:17:13;1.10;;;0.95;;
57101;SDS011;42982;54.558;18.508;2023-08-31T02:18:14;1.38;;;1.00;;
57101;SDS011;42982;54.558;18.508;2023-08-31T02:19:16;2.17;;;1.27;;
57101;SDS011;42982;54.558;18.508;2023-08-31T02:20:23;1.98;;;1.10;;
57101;SDS011;42982;54.558;18.508;2023-08-31T02:21:27;2.50;;;1.15;;
57101;SDS011;42982;54.558;18.508;2023-08-31T02:22:30;1.60;;;0.90;;
57101;SDS011;42982;54.558;18.508;2023-08-31T02:23:33;3.70;;;1.20;;
57101;SDS011;42982;54.558;18.508;2023-08-31T02:24:38;1.10;;;1.00;;
57101;SDS011;42982;54.558;18.508;2023-08-31T02:25:48;2.00;;;1.08;;
57101;SDS011;42982;54.558;18.508;2023-08-31T02:26:52;1.83;;;1.23;;
57101;SDS011;42982;54.558;18.508;2023-08-31T02:27:57;2.80;;;1.40;;
57101;SDS011;42982;54.558;18.508;2023-08-31T02:29:06;2.63;;;1.08;;
57101;SDS011;42982;54.558;18.508;2023-08-31T02:30:08;5.47;;;1.70;;
57101;SDS011;42982;54.558;18.508;2023-08-31T02:31:10;2.28;;;1.08;;
57101;SDS011;42982;54.558;18.508;2023-08-31T02:32:19;1.25;;;0.80;;
57101;SDS011;42982;54.558;18.508;2023-08-31T02:33:21;1.58;;;1.10;;
57101;SDS011;42982;54.558;18.508;2023-08-31T02:34:26;1.80;;;1.30;;
57101;SDS011;42982;54.558;18.508;2023-08-31T02:35:30;2.03;;;0.60;;
57101;SDS011;42982;54.558;18.508;2023-08-31T02:36:34;1.48;;;0.90;;
57101;SDS011;42982;54.558;18.508;2023-08-31T02:37:37;1.42;;;1.00;;
57101;SDS011;42982;54.558;18.508;2023-08-31T02:38:41;0.85;;;0.65;;
57101;SDS011;42982;54.558;18.508;2023-08-31T02:39:43;0.93;;;0.63;;
57101;SDS011;42982;54.558;18.508;2023-08-31T02:40:47;1.73;;;0.90;;
57101;SDS011;42982;54.558;18.508;2023-08-31T02:41:49;0.98;;;0.70;;
57101;SDS011;42982;54.558;18.508;2023-08-31T02:42:53;2.78;;;1.20;;
57101;SDS011;42982;54.558;18.508;2023-08-31T02:44:00;0.82;;;0.68;;
57101;SDS011;42982;54.558;18.508;2023-08-31T02:45:02;1.30;;;0.70;;
57101;SDS011;42982;54.558;18.508;2023-08-31T02:46:05;4.00;;;0.90;;
57101;SDS011;42982;54.558;18.508;2023-08-31T02:47:07;1.13;;;0.70;;
57101;SDS011;42982;54.558;18.508;2023-08-31T02:48:09;1.33;;;0.90;;
57101;SDS011;42982;54.558;18.508;2023-08-31T02:49:13;1.00;;;0.65;;
57101;SDS011;42982;54.558;18.508;2023-08-31T02:50:17;2.20;;;0.70;;
57101;SDS011;42982;54.558;18.508;2023-08-31T02:51:19;2.13;;;1.10;;
57101;SDS011;42982;54.558;18.508;2023-08-31T02:52:21;1.05;;;0.65;;
57101;SDS011;42982;54.558;18.508;2023-08-31T02:53:23;1.27;;;0.70;;
57101;SDS011;42982;54.558;18.508;2023-08-31T02:54:26;1.63;;;0.90;;
57101;SDS011;42982;54.558;18.508;2023-08-31T02:55:33;1.23;;;0.50;;
57101;SDS011;42982;54.558;18.508;2023-08-31T02:56:38;0.90;;;0.60;;
57101;SDS011;42982;54.558;18.508;2023-08-31T02:57:43;1.20;;;0.60;;
57101;SDS011;42982;54.558;18.508;2023-08-31T02:58:48;2.70;;;0.60;;
57101;SDS011;42982;54.558;18.508;2023-08-31T02:59:52;0.55;;;0.50;;
57101;SDS011;42982;54.558;18.508;2023-08-31T03:00:54;2.10;;;0.80;;
57101;SDS011;42982;54.558;18.508;2023-08-31T03:01:58;0.88;;;0.50;;
57101;SDS011;42982;54.558;18.508;2023-08-31T03:03:00;0.60;;;0.57;;
57101;SDS011;42982;54.558;18.508;2023-08-31T03:04:07;4.22;;;0.70;;
57101;SDS011;42982;54.558;18.508;2023-08-31T03:05:09;1.90;;;0.68;;
57101;SDS011;42982;54.558;18.508;2023-08-31T03:06:11;1.85;;;1.08;;
57101;SDS011;42982;54.558;18.508;2023-08-31T03:07:13;2.17;;;0.77;;
57101;SDS011;42982;54.558;18.508;2023-08-31T03:08:21;1.08;;;0.75;;
57101;SDS011;42982;54.558;18.508;2023-08-31T03:09:23;0.50;;;0.50;;
57101;SDS011;42982;54.558;18.508;2023-08-31T03:10:24;2.28;;;0.80;;
57101;SDS011;42982;54.558;18.508;2023-08-31T03:11:34;0.60;;;0.60;;
57101;SDS011;42982;54.558;18.508;2023-08-31T03:12:36;1.67;;;0.98;;
57101;SDS011;42982;54.558;18.508;2023-08-31T03:13:39;1.17;;;0.50;;
57101;SDS011;42982;54.558;18.508;2023-08-31T03:14:41;1.17;;;1.02;;
57101;SDS011;42982;54.558;18.508;2023-08-31T03:15:43;1.75;;;0.70;;
57101;SDS011;42982;54.558;18.508;2023-08-31T03:16:45;1.38;;;0.70;;
57101;SDS011;42982;54.558;18.508;2023-08-31T03:17:46;3.85;;;1.10;;
57101;SDS011;42982;54.558;18.508;2023-08-31T03:18:49;1.42;;;1.05;;
57101;SDS011;42982;54.558;18.508;2023-08-31T03:19:53;0.93;;;0.73;;
57101;SDS011;42982;54.558;18.508;2023-08-31T03:20:55;0.70;;;0.70;;
57101;SDS011;42982;54.558;18.508;2023-08-31T03:21:58;2.42;;;1.10;;
57101;SDS011;42982;54.558;18.508;2023-08-31T03:23:00;2.28;;;0.93;;
57101;SDS011;42982;54.558;18.508;2023-08-31T03:24:05;1.25;;;0.95;;
57101;SDS011;42982;54.558;18.508;2023-08-31T03:25:08;3.60;;;1.60;;
57101;SDS011;42982;54.558;18.508;2023-08-31T03:26:11;1.38;;;1.02;;
57101;SDS011;42982;54.558;18.508;2023-08-31T03:27:13;0.63;;;0.60;;
57101;SDS011;42982;54.558;18.508;2023-08-31T03:28:16;1.27;;;0.65;;
57101;SDS011;42982;54.558;18.508;2023-08-31T03:29:17;1.15;;;0.68;;
57101;SDS011;42982;54.558;18.508;2023-08-31T03:30:19;1.25;;;0.73;;
57101;SDS011;42982;54.558;18.508;2023-08-31T03:31:21;1.65;;;0.80;;
57101;SDS011;42982;54.558;18.508;2023-08-31T03:32:22;1.48;;;0.77;;
57101;SDS011;42982;54.558;18.508;2023-08-31T03:33:24;3.20;;;0.60;;
57101;SDS011;42982;54.558;18.508;2023-08-31T03:34:30;1.60;;;0.90;;
57101;SDS011;42982;54.558;18.508;2023-08-31T03:35:32;0.70;;;0.70;;
57101;SDS011;42982;54.558;18.508;2023-08-31T03:36:34;0.75;;;0.68;;
57101;SDS011;42982;54.558;18.508;2023-08-31T03:37:40;1.88;;;0.90;;
57101;SDS011;42982;54.558;18.508;2023-08-31T03:38:43;0.65;;;0.60;;
57101;SDS011;42982;54.558;18.508;2023-08-31T03:39:47;1.10;;;0.90;;
57101;SDS011;42982;54.558;18.508;2023-08-31T03:40:57;0.80;;;0.65;;
57101;SDS011;42982;54.558;18.508;2023-08-31T03:42:09;2.08;;;0.80;;
57101;SDS011;42982;54.558;18.508;2023-08-31T03:43:12;1.15;;;0.80;;
57101;SDS011;42982;54.558;18.508;2023-08-31T03:44:16;1.08;;;0.90;;
57101;SDS011;42982;54.558;18.508;2023-08-31T03:45:18;0.70;;;0.60;;
57101;SDS011;42982;54.558;18.508;2023-08-31T03:46:20;1.52;;;0.60;;
57101;SDS011;42982;54.558;18.508;2023-08-31T03:47:27;1.38;;;0.80;;
57101;SDS011;42982;54.558;18.508;2023-08-31T03:48:29;3.40;;;0.80;;
57101;SDS011;42982;54.558;18.508;2023-08-31T03:49:33;1.05;;;0.60;;
57101;SDS011;42982;54.558;18.508;2023-08-31T03:50:36;0.60;;;0.50;;
57101;SDS011;42982;54.558;18.508;2023-08-31T03:51:43;0.80;;;0.60;;
57101;SDS011;42982;54.558;18.508;2023-08-31T03:52:49;0.40;;;0.40;;
57101;SDS011;42982;54.558;18.508;2023-08-31T03:53:53;0.50;;;0.50;;
57101;SDS011;42982;54.558;18.508;2023-08-31T03:55:00;1.67;;;0.40;;
57101;SDS011;42982;54.558;18.508;2023-08-31T03:56:02;0.93;;;0.60;;
57101;SDS011;42982;54.558;18.508;2023-08-31T03:57:05;1.92;;;0.93;;
57101;SDS011;42982;54.558;18.508;2023-08-31T03:58:07;0.70;;;0.70;;
57101;SDS011;42982;54.558;18.508;2023-08-31T03:59:12;2.30;;;0.85;;
57101;SDS011;42982;54.558;18.508;2023-08-31T04:00:15;0.68;;;0.40;;
57101;SDS011;42982;54.558;18.508;2023-08-31T04:01:21;1.02;;;0.40;;
57101;SDS011;42982;54.558;18.508;2023-08-31T04:02:24;0.80;;;0.40;;
57101;SDS011;42982;54.558;18.508;2023-08-31T04:03:28;1.73;;;0.60;;
57101;SDS011;42982;54.558;18.508;2023-08-31T04:04:37;0.68;;;0.52;;
57101;SDS011;42982;54.558;18.508;2023-08-31T04:05:40;0.57;;;0.57;;
57101;SDS011;42982;54.558;18.508;2023-08-31T04:06:45;0.47;;;0.40;;
57101;SDS011;42982;54.558;18.508;2023-08-31T04:07:46;2.33;;;0.60;;
57101;SDS011;42982;54.558;18.508;2023-08-31T04:08:48;1.77;;;0.50;;
57101;SDS011;42982;54.558;18.508;2023-08-31T04:09:57;0.43;;;0.43;;
57101;SDS011;42982;54.558;18.508;2023-08-31T04:10:57;0.63;;;0.50;;
57101;SDS011;42982;54.558;18.508;2023-08-31T04:11:59;1.20;;;0.57;;
57101;SDS011;42982;54.558;18.508;2023-08-31T04:13:08;1.08;;;0.98;;
57101;SDS011;42982;54.558;18.508;2023-08-31T04:14:10;4.22;;;2.92;;
57101;SDS011;42982;54.558;18.508;2023-08-31T04:15:11;1.98;;;1.10;;
57101;SDS011;42982;54.558;18.508;2023-08-31T04:16:13;1.00;;;0.90;;
57101;SDS011;42982;54.558;18.508;2023-08-31T04:17:17;0.93;;;0.60;;
57101;SDS011;42982;54.558;18.508;2023-08-31T04:18:21;0.77;;;0.70;;
57101;SDS011;42982;54.558;18.508;2023-08-31T04:19:26;1.52;;;1.00;;
57101;SDS011;42982;54.558;18.508;2023-08-31T04:20:28;3.80;;;0.80;;
57101;SDS011;42982;54.558;18.508;2023-08-31T04:21:30;0.52;;;0.40;;
57101;SDS011;42982;54.558;18.508;2023-08-31T04:22:35;1.67;;;0.70;;
57101;SDS011;42982;54.558;18.508;2023-08-31T04:23:39;0.50;;;0.50;;
57101;SDS011;42982;54.558;18.508;2023-08-31T04:24:43;1.08;;;0.70;;
57101;SDS011;42982;54.558;18.508;2023-08-31T04:25:45;0.70;;;0.50;;
57101;SDS011;42982;54.558;18.508;2023-08-31T04:26:51;2.30;;;0.82;;
57101;SDS011;42982;54.558;18.508;2023-08-31T04:27:56;0.77;;;0.70;;
57101;SDS011;42982;54.558;18.508;2023-08-31T04:29:01;1.95;;;0.60;;
57101;SDS011;42982;54.558;18.508;2023-08-31T04:30:05;1.25;;;0.70;;
57101;SDS011;42982;54.558;18.508;2023-08-31T04:31:09;2.03;;;0.73;;
57101;SDS011;42982;54.558;18.508;2023-08-31T04:32:10;2.20;;;0.98;;
57101;SDS011;42982;54.558;18.508;2023-08-31T04:33:12;2.13;;;1.10;;
57101;SDS011;42982;54.558;18.508;2023-08-31T04:34:16;2.03;;;0.70;;
57101;SDS011;42982;54.558;18.508;2023-08-31T04:35:20;1.38;;;0.70;;
57101;SDS011;42982;54.558;18.508;2023-08-31T04:36:24;0.98;;;0.57;;
57101;SDS011;42982;54.558;18.508;2023-08-31T04:37:29;1.42;;;0.70;;
57101;SDS011;42982;54.558;18.508;2023-08-31T04:38:34;0.77;;;0.57;;
57101;SDS011;42982;54.558;18.508;2023-08-31T04:39:34;0.65;;;0.57;;
57101;SDS011;42982;54.558;18.508;2023-08-31T04:40:36;1.65;;;0.50;;
57101;SDS011;42982;54.558;18.508;2023-08-31T04:41:38;2.22;;;0.73;;
57101;SDS011;42982;54.558;18.508;2023-08-31T04:42:42;0.68;;;0.68;;
57101;SDS011;42982;54.558;18.508;2023-08-31T04:43:43;2.15;;;0.50;;
57101;SDS011;42982;54.558;18.508;2023-08-31T04:44:45;1.27;;;0.60;;
57101;SDS011;42982;54.558;18.508;2023-08-31T04:45:49;1.13;;;0.60;;
57101;SDS011;42982;54.558;18.508;2023-08-31T04:46:52;1.38;;;0.65;;
57101;SDS011;42982;54.558;18.508;2023-08-31T04:47:55;1.83;;;0.60;;
57101;SDS011;42982;54.558;18.508;2023-08-31T04:49:00;2.30;;;0.60;;
57101;SDS011;42982;54.558;18.508;2023-08-31T04:50:02;1.98;;;0.70;;
57101;SDS011;42982;54.558;18.508;2023-08-31T04:51:09;0.60;;;0.60;;
57101;SDS011;42982;54.558;18.508;2023-08-31T04:52:27;1.63;;;0.52;;
57101;SDS011;42982;54.558;18.508;2023-08-31T04:53:29;1.50;;;0.70;;
57101;SDS011;42982;54.558;18.508;2023-08-31T04:54:36;0.82;;;0.68;;
57101;SDS011;42982;54.558;18.508;2023-08-31T04:55:38;0.75;;;0.47;;
57101;SDS011;42982;54.558;18.508;2023-08-31T04:56:40;0.60;;;0.60;;
57101;SDS011;42982;54.558;18.508;2023-08-31T04:57:44;1.02;;;0.60;;
57101;SDS011;42982;54.558;18.508;2023-08-31T04:58:46;1.30;;;0.60;;
57101;SDS011;42982;54.558;18.508;2023-08-31T04:59:50;0.93;;;0.50;;
57101;SDS011;42982;54.558;18.508;2023-08-31T05:00:52;0.50;;;0.50;;
57101;SDS011;42982;54.558;18.508;2023-08-31T05:01:54;0.75;;;0.57;;
57101;SDS011;42982;54.558;18.508;2023-08-31T05:03:00;1.02;;;0.60;;
57101;SDS011;42982;54.558;18.508;2023-08-31T05:04:04;1.70;;;1.00;;
57101;SDS011;42982;54.558;18.508;2023-08-31T05:05:09;1.52;;;0.50;;
57101;SDS011;42982;54.558;18.508;2023-08-31T05:06:14;0.98;;;0.50;;
57101;SDS011;42982;54.558;18.508;2023-08-31T05:07:15;3.28;;;0.60;;
57101;SDS011;42982;54.558;18.508;2023-08-31T05:08:16;2.25;;;0.47;;
57101;SDS011;42982;54.558;18.508;2023-08-31T05:09:19;1.00;;;0.68;;
57101;SDS011;42982;54.558;18.508;2023-08-31T05:10:26;3.70;;;0.70;;
57101;SDS011;42982;54.558;18.508;2023-08-31T05:11:28;3.35;;;0.70;;
57101;SDS011;42982;54.558;18.508;2023-08-31T05:12:33;0.70;;;0.60;;
57101;SDS011;42982;54.558;18.508;2023-08-31T05:13:34;2.40;;;0.60;;
57101;SDS011;42982;54.558;18.508;2023-08-31T05:14:37;1.00;;;0.57;;
57101;SDS011;42982;54.558;18.508;2023-08-31T05:15:42;1.88;;;0.60;;
57101;SDS011;42982;54.558;18.508;2023-08-31T05:16:45;0.88;;;0.50;;
57101;SDS011;42982;54.558;18.508;2023-08-31T05:17:50;1.10;;;0.70;;
57101;SDS011;42982;54.558;18.508;2023-08-31T05:18:51;2.33;;;0.80;;
57101;SDS011;42982;54.558;18.508;2023-08-31T05:19:53;2.50;;;0.73;;
57101;SDS011;42982;54.558;18.508;2023-08-31T05:20:55;1.02;;;0.68;;
57101;SDS011;42982;54.558;18.508;2023-08-31T05:21:59;2.53;;;0.80;;
57101;SDS011;42982;54.558;18.508;2023-08-31T05:23:01;1.63;;;0.70;;
57101;SDS011;42982;54.558;18.508;2023-08-31T05:24:03;1.13;;;0.80;;
57101;SDS011;42982;54.558;18.508;2023-08-31T05:25:09;1.25;;;0.70;;
57101;SDS011;42982;54.558;18.508;2023-08-31T05:26:13;1.98;;;0.70;;
57101;SDS011;42982;54.558;18.508;2023-08-31T05:27:15;1.02;;;0.80;;
57101;SDS011;42982;54.558;18.508;2023-08-31T05:28:17;1.27;;;0.85;;
57101;SDS011;42982;54.558;18.508;2023-08-31T05:29:19;0.98;;;0.73;;
57101;SDS011;42982;54.558;18.508;2023-08-31T05:30:22;1.73;;;0.80;;
57101;SDS011;42982;54.558;18.508;2023-08-31T05:31:25;0.60;;;0.60;;
57101;SDS011;42982;54.558;18.508;2023-08-31T05:32:29;0.85;;;0.77;;
57101;SDS011;42982;54.558;18.508;2023-08-31T05:33:31;0.68;;;0.60;;
57101;SDS011;42982;54.558;18.508;2023-08-31T05:34:34;1.30;;;0.65;;
57101;SDS011;42982;54.558;18.508;2023-08-31T05:35:41;3.25;;;0.90;;
57101;SDS011;42982;54.558;18.508;2023-08-31T05:36:43;0.70;;;0.70;;
57101;SDS011;42982;54.558;18.508;2023-08-31T05:37:47;1.60;;;0.70;;
57101;SDS011;42982;54.558;18.508;2023-08-31T05:38:50;0.85;;;0.60;;
57101;SDS011;42982;54.558;18.508;2023-08-31T05:39:54;0.95;;;0.50;;
57101;SDS011;42982;54.558;18.508;2023-08-31T05:41:06;0.95;;;0.52;;
57101;SDS011;42982;54.558;18.508;2023-08-31T05:42:09;1.45;;;0.60;;
57101;SDS011;42982;54.558;18.508;2023-08-31T05:43:14;0.75;;;0.73;;
57101;SDS011;42982;54.558;18.508;2023-08-31T05:44:15;0.85;;;0.70;;
57101;SDS011;42982;54.558;18.508;2023-08-31T05:45:17;1.30;;;0.70;;
57101;SDS011;42982;54.558;18.508;2023-08-31T05:46:18;0.93;;;0.65;;
57101;SDS011;42982;54.558;18.508;2023-08-31T05:47:22;1.35;;;0.70;;
57101;SDS011;42982;54.558;18.508;2023-08-31T05:48:24;0.68;;;0.65;;
57101;SDS011;42982;54.558;18.508;2023-08-31T05:49:26;1.63;;;0.60;;
57101;SDS011;42982;54.558;18.508;2023-08-31T05:50:29;2.13;;;0.57;;
57101;SDS011;42982;54.558;18.508;2023-08-31T05:51:34;0.80;;;0.60;;
57101;SDS011;42982;54.558;18.508;2023-08-31T05:52:38;0.85;;;0.70;;
57101;SDS011;42982;54.558;18.508;2023-08-31T05:53:44;1.48;;;0.88;;
57101;SDS011;42982;54.558;18.508;2023-08-31T05:54:49;0.70;;;0.70;;
57101;SDS011;42982;54.558;18.508;2023-08-31T05:55:50;4.10;;;1.58;;
57101;SDS011;42982;54.558;18.508;2023-08-31T05:56:52;1.33;;;0.85;;
57101;SDS011;42982;54.558;18.508;2023-08-31T05:57:56;1.20;;;0.75;;
57101;SDS011;42982;54.558;18.508;2023-08-31T05:59:00;2.50;;;0.80;;
57101;SDS011;42982;54.558;18.508;2023-08-31T06:00:03;1.70;;;0.93;;
57101;SDS011;42982;54.558;18.508;2023-08-31T06:01:13;2.20;;;0.90;;
57101;SDS011;42982;54.558;18.508;2023-08-31T06:02:16;2.75;;;0.95;;
57101;SDS011;42982;54.558;18.508;2023-08-31T06:03:18;0.80;;;0.80;;
57101;SDS011;42982;54.558;18.508;2023-08-31T06:04:22;1.27;;;1.02;;
57101;SDS011;42982;54.558;18.508;2023-08-31T06:05:27;1.00;;;0.90;;
57101;SDS011;42982;54.558;18.508;2023-08-31T06:06:31;3.22;;;1.10;;
57101;SDS011;42982;54.558;18.508;2023-08-31T06:07:33;2.67;;;0.90;;
57101;SDS011;42982;54.558;18.508;2023-08-31T06:08:39;5.43;;;2.60;;
57101;SDS011;42982;54.558;18.508;2023-08-31T06:09:43;2.55;;;1.60;;
57101;SDS011;42982;54.558;18.508;2023-08-31T06:10:45;2.67;;;1.17;;
57101;SDS011;42982;54.558;18.508;2023-08-31T06:11:49;1.65;;;1.30;;
57101;SDS011;42982;54.558;18.508;2023-08-31T06:12:54;2.95;;;1.30;;
57101;SDS011;42982;54.558;18.508;2023-08-31T06:13:56;2.88;;;1.38;;
57101;SDS011;42982;54.558;18.508;2023-08-31T06:14:57;2.05;;;1.20;;
57101;SDS011;42982;54.558;18.508;2023-08-31T06:16:02;3.03;;;1.30;;
57101;SDS011;42982;54.558;18.508;2023-08-31T06:17:04;1.92;;;1.05;;
57101;SDS011;42982;54.558;18.508;2023-08-31T06:18:06;1.60;;;1.15;;
57101;SDS011;42982;54.558;18.508;2023-08-31T06:19:08;1.63;;;1.00;;
57101;SDS011;42982;54.558;18.508;2023-08-31T06:20:10;4.00;;;1.33;;
57101;SDS011;42982;54.558;18.508;2023-08-31T06:21:12;2.03;;;1.50;;
57101;SDS011;42982;54.558;18.508;2023-08-31T06:22:16;2.55;;;1.10;;
57101;SDS011;42982;54.558;18.508;2023-08-31T06:23:18;1.90;;;1.30;;
57101;SDS011;42982;54.558;18.508;2023-08-31T06:24:20;4.55;;;1.20;;
57101;SDS011;42982;54.558;18.508;2023-08-31T06:25:22;3.05;;;1.17;;
57101;SDS011;42982;54.558;18.508;2023-08-31T06:26:26;5.25;;;1.30;;
57101;SDS011;42982;54.558;18.508;2023-08-31T06:27:31;3.45;;;1.27;;
57101;SDS011;42982;54.558;18.508;2023-08-31T06:28:36;1.70;;;1.25;;